Time;durP1;ratioP1;P1;durP2;ratioP2;P2;SDS_P1;SDS_P2;PMS_P1;PMS_P2;Temp;Humidity;BMP_temperature;BMP_pressure;BME280_temperature;BME280_humidity;BME280_pressure;Samples;Min_cycle;Max_cycle;Signal;HPM_P1;HPM_P2
2023/03/05 00:01:23;;;;;;;4.47;1.00;;;4.60;99.90;;;;;;5073525;28;20187;-48
2023/03/05 00:03:51;;;;;;;7.23;1.27;;;4.60;99.90;;;;;;5074176;28;20189;-48
2023/03/05 00:06:17;;;;;;;5.60;1.37;;;4.60;99.90;;;;;;5072920;28;20181;-48
2023/03/05 00:08:43;;;;;;;3.33;1.43;;;4.50;99.90;;;;;;5074226;28;20570;-47
2023/03/05 00:11:11;;;;;;;4.17;1.13;;;4.50;99.90;;;;;;5073862;28;20198;-47
2023/03/05 00:13:37;;;;;;;5.47;1.30;;;4.50;99.90;;;;;;5074140;28;20208;-47
2023/03/05 00:16:09;;;;;;;7.07;1.23;;;4.50;99.90;;;;;;5085221;28;20259;-47
2023/03/05 00:18:35;;;;;;;4.27;1.10;;;4.50;99.90;;;;;;5082597;28;20180;-47
2023/03/05 00:21:01;;;;;;;4.67;1.10;;;4.50;99.90;;;;;;5073462;28;20584;-48
2023/03/05 00:23:27;;;;;;;5.50;1.13;;;4.50;99.90;;;;;;5073401;28;20555;-48
2023/03/05 00:25:52;;;;;;;1.97;0.93;;;4.50;99.90;;;;;;5073298;28;20210;-48
2023/03/05 00:28:18;;;;;;;4.47;0.70;;;4.50;99.90;;;;;;5073331;28;20182;-48
2023/03/05 00:30:43;;;;;;;3.23;0.97;;;4.50;99.90;;;;;;5073362;28;20202;-48
2023/03/05 00:33:11;;;;;;;3.83;1.27;;;4.50;99.90;;;;;;5054980;28;20572;-47
2023/03/05 00:35:41;;;;;;;4.87;1.23;;;4.40;99.90;;;;;;5073336;28;20181;-46
2023/03/05 00:38:07;;;;;;;3.63;1.10;;;4.40;99.90;;;;;;5073269;28;20183;-45
2023/03/05 00:40:37;;;;;;;4.83;1.47;;;4.40;99.90;;;;;;5054995;28;20529;-45
2023/03/05 00:43:04;;;;;;;6.20;1.30;;;4.30;99.90;;;;;;5073151;28;20243;-46
2023/03/05 00:45:30;;;;;;;7.40;1.13;;;4.40;99.90;;;;;;5054906;28;20705;-47
2023/03/05 00:47:55;;;;;;;3.03;0.80;;;4.30;99.90;;;;;;5072998;28;20305;-46
2023/03/05 00:50:21;;;;;;;3.80;1.10;;;4.30;99.90;;;;;;5071971;28;20208;-47
2023/03/05 00:52:46;;;;;;;4.33;1.30;;;4.30;99.90;;;;;;5054935;28;20236;-45
2023/03/05 00:55:12;;;;;;;4.77;1.10;;;4.30;99.90;;;;;;5073079;28;20187;-47
2023/03/05 00:57:37;;;;;;;3.87;0.77;;;4.30;99.90;;;;;;5072852;28;20185;-46
2023/03/05 01:00:04;;;;;;;6.13;1.30;;;4.30;99.90;;;;;;5072699;28;20202;-47
2023/03/05 01:02:30;;;;;;;9.90;1.00;;;4.20;99.90;;;;;;5072695;28;20660;-46
2023/03/05 01:04:56;;;;;;;8.23;1.03;;;4.20;99.90;;;;;;5054835;28;20187;-46
2023/03/05 01:07:21;;;;;;;6.73;1.17;;;4.20;99.90;;;;;;5072951;28;20673;-44
2023/03/05 01:09:47;;;;;;;4.33;0.90;;;4.20;99.90;;;;;;5073036;28;20563;-51
2023/03/05 01:12:12;;;;;;;4.17;0.97;;;4.20;99.90;;;;;;5072859;28;20516;-50
2023/03/05 01:14:38;;;;;;;5.10;1.10;;;4.20;99.90;;;;;;5073403;28;20186;-51
2023/03/05 01:17:04;;;;;;;6.50;1.47;;;4.20;99.90;;;;;;5074919;28;20170;-51
2023/03/05 01:19:30;;;;;;;3.03;1.10;;;4.20;99.90;;;;;;5076444;28;20207;-50
2023/03/05 01:21:55;;;;;;;4.03;1.47;;;4.20;99.90;;;;;;5076136;28;20202;-51
2023/03/05 01:24:21;;;;;;;6.83;1.80;;;4.20;99.90;;;;;;5076124;28;20257;-51
2023/03/05 01:26:48;;;;;;;6.77;1.70;;;4.20;99.90;;;;;;5076317;28;20188;-51
2023/03/05 01:29:14;;;;;;;5.33;1.83;;;4.20;99.90;;;;;;5076677;28;20269;-51
2023/03/05 01:31:39;;;;;;;6.60;1.80;;;4.20;99.90;;;;;;5075952;28;20338;-50
2023/03/05 01:34:05;;;;;;;9.43;1.73;;;4.20;99.90;;;;;;5075976;28;20202;-51
2023/03/05 01:36:31;;;;;;;7.10;1.57;;;4.10;99.90;;;;;;5076191;28;20208;-50
2023/03/05 01:38:56;;;;;;;8.90;2.07;;;4.10;99.90;;;;;;5075867;28;20181;-52
2023/03/05 01:41:22;;;;;;;6.50;1.50;;;4.10;99.90;;;;;;5076001;28;20188;-50
2023/03/05 01:43:48;;;;;;;6.87;1.93;;;4.10;99.90;;;;;;5075976;28;20182;-51
2023/03/05 01:46:21;;;;;;;10.27;1.70;;;4.10;99.90;;;;;;5075918;28;20189;-51
2023/03/05 01:48:53;;;;;;;8.07;1.70;;;4.00;99.90;;;;;;5076271;28;20601;-52
2023/03/05 01:51:21;;;;;;;10.20;1.77;;;4.00;99.90;;;;;;5075976;28;20228;-52
2023/03/05 01:53:47;;;;;;;6.83;1.87;;;4.00;99.90;;;;;;5075809;28;20279;-51
2023/03/05 01:56:12;;;;;;;6.50;1.63;;;4.00;99.90;;;;;;5075604;28;20179;-51
2023/03/05 01:58:38;;;;;;;6.77;1.90;;;4.00;99.90;;;;;;5075573;28;20237;-51
2023/03/05 02:01:04;;;;;;;5.70;1.53;;;4.00;99.90;;;;;;5075548;28;20199;-51
2023/03/05 02:03:32;;;;;;;10.10;1.50;;;4.00;99.90;;;;;;5075675;28;20190;-51
2023/03/05 02:05:57;;;;;;;4.83;1.30;;;4.00;99.90;;;;;;5076163;28;20547;-50
2023/03/05 02:08:23;;;;;;;10.60;1.70;;;3.90;99.90;;;;;;5075454;28;20178;-52
2023/03/05 02:10:55;;;;;;;10.33;1.67;;;3.90;99.90;;;;;;5075294;28;20201;-49
2023/03/05 02:13:26;;;;;;;7.90;1.60;;;3.90;99.90;;;;;;5075172;28;20208;-50
2023/03/05 02:15:53;;;;;;;8.20;1.67;;;3.90;99.90;;;;;;5075197;28;20170;-52
2023/03/05 02:18:20;;;;;;;7.87;1.83;;;3.90;99.90;;;;;;5075293;28;20186;-51
2023/03/05 02:20:50;;;;;;;3.80;1.53;;;3.90;99.90;;;;;;5074999;28;20196;-51
2023/03/05 02:23:18;;;;;;;5.73;1.60;;;3.90;99.90;;;;;;5074920;28;20261;-52
2023/03/05 02:25:44;;;;;;;6.87;1.60;;;3.90;99.90;;;;;;5075820;28;20174;-51
2023/03/05 02:28:23;;;;;;;9.23;1.67;;;3.90;99.90;;;;;;5074313;28;20181;-51
2023/03/05 02:30:49;;;;;;;6.00;1.57;;;4.00;99.90;;;;;;5074848;28;20206;-52
2023/03/05 02:33:16;;;;;;;6.83;1.50;;;4.00;99.90;;;;;;5075040;28;20208;-50
2023/03/05 02:35:48;;;;;;;3.83;1.63;;;4.00;99.90;;;;;;5074816;28;20256;-52
2023/03/05 02:38:15;;;;;;;7.17;2.70;;;4.00;99.90;;;;;;5075016;28;20166;-51
2023/03/05 02:40:41;;;;;;;9.20;2.93;;;3.90;99.90;;;;;;5074934;28;20202;-51
2023/03/05 02:43:07;;;;;;;8.70;1.93;;;3.90;99.90;;;;;;5074680;28;20180;-51
2023/03/05 02:45:33;;;;;;;8.57;1.73;;;3.90;99.90;;;;;;5074740;28;20640;-53
2023/03/05 02:47:59;;;;;;;5.93;1.60;;;3.90;99.90;;;;;;5075150;28;20176;-52
2023/03/05 02:50:26;;;;;;;3.67;1.10;;;3.90;99.90;;;;;;5074456;28;20236;-52
2023/03/05 02:52:51;;;;;;;8.60;1.30;;;3.90;99.90;;;;;;5074740;28;20294;-51
2023/03/05 02:55:17;;;;;;;3.33;1.47;;;3.80;99.90;;;;;;5074623;28;20358;-51
2023/03/05 02:57:43;;;;;;;3.77;1.40;;;3.80;99.90;;;;;;5074563;28;20639;-51
2023/03/05 03:00:09;;;;;;;5.63;1.37;;;3.80;99.90;;;;;;5074605;28;20650;-51
2023/03/05 03:02:34;;;;;;;3.13;1.30;;;3.80;99.90;;;;;;5074495;28;20679;-51
2023/03/05 03:05:00;;;;;;;7.17;1.70;;;3.80;99.90;;;;;;5074394;28;20185;-51
2023/03/05 03:07:26;;;;;;;6.63;1.20;;;3.80;99.90;;;;;;5074163;28;20210;-52
2023/03/05 03:09:51;;;;;;;6.40;1.60;;;3.80;99.90;;;;;;5074088;28;20222;-51
2023/03/05 03:12:17;;;;;;;8.90;1.97;;;3.80;99.90;;;;;;5074373;28;20186;-51
2023/03/05 03:14:43;;;;;;;6.00;1.50;;;3.70;99.90;;;;;;5074374;28;20181;-51
2023/03/05 03:17:11;;;;;;;6.30;2.00;;;3.70;99.90;;;;;;5056918;28;20182;-52
2023/03/05 03:19:36;;;;;;;7.87;2.17;;;3.70;99.90;;;;;;5074517;28;20184;-52
2023/03/05 03:22:02;;;;;;;7.70;1.80;;;3.70;99.90;;;;;;5082404;28;20183;-52
2023/03/05 03:24:32;;;;;;;8.53;1.77;;;3.70;99.90;;;;;;5094042;28;20272;-52
2023/03/05 03:26:58;;;;;;;8.13;1.93;;;3.70;99.90;;;;;;5079043;28;20190;-50
2023/03/05 03:29:23;;;;;;;9.03;1.80;;;3.70;99.90;;;;;;5074409;28;20179;-51
2023/03/05 03:31:49;;;;;;;5.63;1.70;;;3.70;99.90;;;;;;5074412;28;20201;-52
2023/03/05 03:34:15;;;;;;;11.20;2.43;;;3.70;99.90;;;;;;5074028;28;20199;-51
2023/03/05 03:36:42;;;;;;;7.87;1.47;;;3.70;99.90;;;;;;5074427;28;20241;-51
2023/03/05 03:39:09;;;;;;;11.13;1.93;;;3.70;99.90;;;;;;5073866;28;20191;-49
2023/03/05 03:41:36;;;;;;;8.87;1.67;;;3.70;99.90;;;;;;5073971;28;20197;-51
2023/03/05 03:44:02;;;;;;;6.37;1.53;;;3.70;99.90;;;;;;5074170;28;20188;-50
2023/03/05 03:46:28;;;;;;;7.20;1.70;;;3.70;99.90;;;;;;5073852;28;20176;-52
2023/03/05 03:48:53;;;;;;;10.17;1.93;;;3.70;99.90;;;;;;5074090;28;20211;-51
2023/03/05 03:51:19;;;;;;;5.70;2.13;;;3.60;99.90;;;;;;5073789;28;20200;-51
2023/03/05 03:53:45;;;;;;;8.33;1.77;;;3.70;99.90;;;;;;5073795;28;20210;-51
2023/03/05 03:56:10;;;;;;;8.57;2.27;;;3.60;99.90;;;;;;5074121;28;20580;-52
2023/03/05 03:58:36;;;;;;;6.70;1.87;;;3.70;99.90;;;;;;5073485;28;20180;-51
2023/03/05 04:01:02;;;;;;;8.33;2.50;;;3.70;99.90;;;;;;5073401;28;20202;-52
2023/03/05 04:03:27;;;;;;;6.90;1.63;;;3.70;99.90;;;;;;5073399;28;20633;-52
2023/03/05 04:05:53;;;;;;;8.43;2.17;;;3.70;99.90;;;;;;5073353;28;20214;-52
2023/03/05 04:08:18;;;;;;;9.73;2.60;;;3.70;99.90;;;;;;5073384;28;20188;-50
2023/03/05 04:10:44;;;;;;;7.47;1.97;;;3.70;99.90;;;;;;5073489;28;20680;-53
2023/03/05 04:13:09;;;;;;;10.50;2.13;;;3.70;99.90;;;;;;5073175;28;20555;-51
2023/03/05 04:15:35;;;;;;;10.47;2.30;;;3.60;99.90;;;;;;5073422;28;20259;-51
2023/03/05 04:18:00;;;;;;;7.20;2.60;;;3.70;99.90;;;;;;5073228;28;20186;-50
2023/03/05 04:20:26;;;;;;;11.20;2.00;;;3.60;99.90;;;;;;5073033;28;20239;-51
2023/03/05 04:22:52;;;;;;;10.90;2.40;;;3.60;99.90;;;;;;5073152;28;20176;-52
2023/03/05 04:25:17;;;;;;;9.67;2.10;;;3.60;99.90;;;;;;5073083;28;20199;-52
2023/03/05 04:27:43;;;;;;;13.77;2.70;;;3.60;99.90;;;;;;5073394;28;20510;-52
2023/03/05 04:30:12;;;;;;;11.03;2.47;;;3.60;99.90;;;;;;5073359;28;20203;-52
2023/03/05 04:32:37;;;;;;;7.37;2.17;;;3.60;99.90;;;;;;5073351;28;20296;-48
2023/03/05 04:35:03;;;;;;;7.87;2.20;;;3.70;99.90;;;;;;5073926;28;20596;-48
2023/03/05 04:37:29;;;;;;;6.60;2.10;;;3.60;99.90;;;;;;5073935;28;20187;-47
2023/03/05 04:39:54;;;;;;;10.33;1.90;;;3.60;99.90;;;;;;5071752;28;20683;-47
2023/03/05 04:42:20;;;;;;;12.83;2.33;;;3.60;99.90;;;;;;5072940;28;20180;-48
2023/03/05 04:44:49;;;;;;;8.87;2.10;;;3.60;99.90;;;;;;5073282;28;20211;-48
2023/03/05 04:47:15;;;;;;;7.57;2.60;;;3.60;99.90;;;;;;5073095;28;20255;-48
2023/03/05 04:49:41;;;;;;;9.50;2.13;;;3.60;99.90;;;;;;5073214;28;20746;-48
2023/03/05 04:52:07;;;;;;;3.20;1.77;;;3.60;99.90;;;;;;5075031;28;20259;-48
2023/03/05 04:54:33;;;;;;;4.80;1.77;;;3.60;99.90;;;;;;5076709;28;20242;-49
2023/03/05 04:56:58;;;;;;;9.80;2.17;;;3.50;99.90;;;;;;5076717;28;20212;-48
2023/03/05 04:59:24;;;;;;;11.00;2.50;;;3.50;99.90;;;;;;5076740;28;20175;-48
2023/03/05 05:01:49;;;;;;;7.80;2.20;;;3.50;99.90;;;;;;5076592;28;20204;-48
2023/03/05 05:04:15;;;;;;;12.77;2.90;;;3.50;99.90;;;;;;5076867;28;20538;-48
2023/03/05 05:06:40;;;;;;;9.10;2.50;;;3.50;99.90;;;;;;5077007;28;20217;-46
2023/03/05 05:09:06;;;;;;;11.03;3.10;;;3.50;99.90;;;;;;5076797;28;20191;-50
2023/03/05 05:11:32;;;;;;;7.00;2.40;;;3.50;99.90;;;;;;5058516;28;20276;-47
2023/03/05 05:13:57;;;;;;;10.67;2.90;;;3.50;99.90;;;;;;5076359;28;20241;-48
2023/03/05 05:16:23;;;;;;;10.03;2.80;;;3.50;99.90;;;;;;5058419;28;20184;-48
2023/03/05 05:18:49;;;;;;;8.33;2.50;;;3.50;99.90;;;;;;5076253;28;20181;-49
2023/03/05 05:21:14;;;;;;;6.87;2.57;;;3.50;99.90;;;;;;5076479;28;20249;-49
2023/03/05 05:23:40;;;;;;;9.60;2.50;;;3.50;99.90;;;;;;5076371;28;20202;-47
2023/03/05 05:26:07;;;;;;;4.63;1.43;;;3.50;99.90;;;;;;5076318;28;20251;-50
2023/03/05 05:28:34;;;;;;;5.37;1.33;;;3.40;99.90;;;;;;5076566;28;20183;-48
2023/03/05 05:31:00;;;;;;;4.20;1.20;;;3.50;99.90;;;;;;5076327;28;20203;-48
2023/03/05 05:33:26;;;;;;;4.53;1.50;;;3.50;99.90;;;;;;5076365;28;20341;-48
2023/03/05 05:35:52;;;;;;;2.93;1.13;;;3.40;99.90;;;;;;5076102;28;20227;-48
2023/03/05 05:38:17;;;;;;;3.67;1.00;;;3.40;99.90;;;;;;5076364;28;20180;-48
2023/03/05 05:40:43;;;;;;;1.93;1.03;;;3.40;99.90;;;;;;5076199;28;20203;-48
2023/03/05 05:43:08;;;;;;;2.50;0.97;;;3.30;99.90;;;;;;5076551;28;20176;-49
2023/03/05 05:45:37;;;;;;;5.83;1.20;;;3.30;99.90;;;;;;5075987;28;20660;-49
2023/03/05 05:48:03;;;;;;;4.70;1.23;;;3.30;99.90;;;;;;5075953;28;20174;-48
2023/03/05 05:50:28;;;;;;;4.20;1.40;;;3.30;99.90;;;;;;5075820;28;20196;-48
2023/03/05 05:52:54;;;;;;;7.43;1.80;;;3.30;99.90;;;;;;5075794;28;20204;-48
2023/03/05 05:55:20;;;;;;;8.13;2.03;;;3.30;99.90;;;;;;5075795;28;20203;-47
2023/03/05 05:57:45;;;;;;;4.53;1.60;;;3.20;99.90;;;;;;5076198;28;20207;-48
2023/03/05 06:00:13;;;;;;;8.23;2.33;;;3.30;99.90;;;;;;5075953;28;20266;-47
2023/03/05 06:02:40;;;;;;;5.40;2.10;;;3.30;99.90;;;;;;5074462;28;20226;-49
2023/03/05 06:05:08;;;;;;;7.70;2.43;;;3.30;99.90;;;;;;5057506;28;20183;-48
2023/03/05 06:07:34;;;;;;;8.17;2.50;;;3.30;99.90;;;;;;5075911;28;20229;-49
2023/03/05 06:09:59;;;;;;;9.63;3.00;;;3.30;99.90;;;;;;5075748;28;20195;-46
2023/03/05 06:12:25;;;;;;;10.73;2.80;;;3.30;99.90;;;;;;5075942;28;20164;-48
2023/03/05 06:14:52;;;;;;;6.40;2.80;;;3.30;99.90;;;;;;5075553;28;20188;-48
2023/03/05 06:17:18;;;;;;;8.83;2.90;;;3.30;99.90;;;;;;5075424;28;20186;-48
2023/03/05 06:19:44;;;;;;;9.83;2.50;;;3.20;99.90;;;;;;5075754;28;20175;-48
2023/03/05 06:22:10;;;;;;;6.10;2.50;;;3.20;99.90;;;;;;5075798;28;20178;-48
2023/03/05 06:24:37;;;;;;;5.33;2.60;;;3.20;99.90;;;;;;5076068;28;20195;-48
2023/03/05 06:27:03;;;;;;;8.70;2.73;;;3.20;99.90;;;;;;5083315;28;20187;-48
2023/03/05 06:29:29;;;;;;;5.83;2.30;;;3.20;99.90;;;;;;5089522;28;20179;-48
2023/03/05 06:31:54;;;;;;;7.73;2.63;;;3.20;99.90;;;;;;5079156;28;20261;-47
2023/03/05 06:34:20;;;;;;;7.77;2.47;;;3.20;99.90;;;;;;5074989;28;20237;-48
2023/03/05 06:36:46;;;;;;;6.37;2.50;;;3.20;99.90;;;;;;5075468;28;20179;-49
2023/03/05 06:39:11;;;;;;;6.53;2.00;;;3.20;99.90;;;;;;5075130;28;20214;-48
2023/03/05 06:41:37;;;;;;;3.90;2.20;;;3.20;99.90;;;;;;5074852;28;20207;-48
2023/03/05 06:44:03;;;;;;;5.63;2.30;;;3.20;99.90;;;;;;5074786;28;20176;-49
2023/03/05 06:46:33;;;;;;;6.50;2.17;;;3.20;99.90;;;;;;5075341;28;20188;-48
2023/03/05 06:49:00;;;;;;;6.63;2.40;;;3.20;99.90;;;;;;5074697;28;20648;-49
2023/03/05 06:51:31;;;;;;;8.23;2.13;;;3.20;99.90;;;;;;5074628;28;20200;-48
2023/03/05 06:54:00;;;;;;;8.17;2.30;;;3.30;99.90;;;;;;5074424;28;20207;-47
2023/03/05 06:56:26;;;;;;;7.90;2.97;;;3.30;99.90;;;;;;5074598;28;20172;-48
2023/03/05 06:58:52;;;;;;;9.87;3.03;;;3.30;99.90;;;;;;5074760;28;20203;-48
2023/03/05 07:01:19;;;;;;;8.23;2.83;;;3.30;99.90;;;;;;5074223;28;20203;-48
2023/03/05 07:03:52;;;;;;;8.30;2.90;;;3.30;99.90;;;;;;5056410;28;20184;-48
2023/03/05 07:06:19;;;;;;;7.40;2.40;;;3.30;99.90;;;;;;5074871;28;20256;-48
2023/03/05 07:08:45;;;;;;;12.00;3.10;;;3.40;99.90;;;;;;5074181;28;20179;-48
2023/03/05 07:11:12;;;;;;;8.47;2.93;;;3.40;99.90;;;;;;5074237;28;20206;-49
2023/03/05 07:13:37;;;;;;;10.03;2.77;;;3.40;99.90;;;;;;5073814;28;20203;-48
2023/03/05 07:16:07;;;;;;;6.87;2.73;;;3.40;99.90;;;;;;5074326;28;20660;-50
2023/03/05 07:18:33;;;;;;;9.90;2.73;;;3.40;99.90;;;;;;5056115;28;20173;-50
2023/03/05 07:21:03;;;;;;;12.77;2.80;;;3.40;99.90;;;;;;5073901;28;20234;-47
2023/03/05 07:23:29;;;;;;;8.30;3.10;;;3.50;99.90;;;;;;5074005;28;20202;-48
2023/03/05 07:25:55;;;;;;;12.27;3.27;;;3.50;99.90;;;;;;5074657;28;20271;-48
2023/03/05 07:28:21;;;;;;;9.17;3.00;;;3.50;99.90;;;;;;5074528;28;20179;-48
2023/03/05 07:31:04;;;;;;;12.17;3.27;;;3.50;99.90;;;;;;5074346;28;20658;-48
2023/03/05 07:33:31;;;;;;;17.10;3.30;;;3.50;99.90;;;;;;5074125;28;20195;-47
2023/03/05 07:35:57;;;;;;;9.77;3.10;;;3.50;99.90;;;;;;5074093;28;20207;-48
2023/03/05 07:38:22;;;;;;;7.53;2.97;;;3.60;99.90;;;;;;5074014;28;20205;-49
2023/03/05 07:40:49;;;;;;;9.17;3.30;;;3.60;99.90;;;;;;5073640;28;20192;-49
2023/03/05 07:43:15;;;;;;;15.63;3.87;;;3.70;99.90;;;;;;5074283;28;20201;-47
2023/03/05 07:45:42;;;;;;;12.40;3.20;;;3.70;99.90;;;;;;5073644;28;20252;-48
2023/03/05 07:48:12;;;;;;;12.17;3.80;;;3.70;99.90;;;;;;5073889;28;20198;-54
2023/03/05 07:50:38;;;;;;;7.13;3.50;;;3.80;99.90;;;;;;5073758;28;20623;-51
2023/03/05 07:53:04;;;;;;;9.37;4.07;;;3.80;99.90;;;;;;5073660;28;20561;-51
2023/03/05 07:55:29;;;;;;;7.67;3.13;;;3.90;99.90;;;;;;5073383;28;20179;-51
2023/03/05 07:57:55;;;;;;;10.50;4.00;;;3.90;99.90;;;;;;5073466;28;20182;-52
2023/03/05 08:00:21;;;;;;;11.47;4.07;;;3.90;99.90;;;;;;5073550;28;20298;-51
2023/03/05 08:02:47;;;;;;;14.90;4.23;;;4.00;99.90;;;;;;5073390;28;20263;-53
2023/03/05 08:05:13;;;;;;;9.83;4.10;;;4.10;99.90;;;;;;5073648;28;20210;-51
2023/03/05 08:07:38;;;;;;;12.90;4.17;;;4.10;99.90;;;;;;5073659;28;20254;-51
2023/03/05 08:10:04;;;;;;;7.27;3.50;;;4.20;99.90;;;;;;5073233;28;20203;-51
2023/03/05 08:12:30;;;;;;;9.77;3.77;;;4.30;99.90;;;;;;5073431;28;20177;-51
2023/03/05 08:14:56;;;;;;;14.93;4.90;;;4.30;99.90;;;;;;5073614;28;20169;-51
2023/03/05 08:17:21;;;;;;;9.40;3.40;;;4.40;99.90;;;;;;5055305;28;20547;-51
2023/03/05 08:19:47;;;;;;;11.20;3.50;;;4.40;99.90;;;;;;5073108;28;20315;-51
2023/03/05 08:22:14;;;;;;;8.23;3.30;;;4.50;99.90;;;;;;5073175;28;20172;-52
2023/03/05 08:24:41;;;;;;;12.83;3.67;;;4.60;99.90;;;;;;5073147;28;20566;-52
2023/03/05 08:27:06;;;;;;;7.83;3.60;;;4.60;99.90;;;;;;5075391;28;20212;-51
2023/03/05 08:29:32;;;;;;;15.73;4.43;;;4.70;99.90;;;;;;5077543;28;20186;-50
2023/03/05 08:31:58;;;;;;;14.43;4.20;;;4.80;99.90;;;;;;5077609;28;20196;-51
2023/03/05 08:34:23;;;;;;;15.43;4.10;;;4.80;99.90;;;;;;5077198;28;20223;-50
2023/03/05 08:36:49;;;;;;;11.27;4.33;;;4.80;99.90;;;;;;5077048;28;20180;-50
2023/03/05 08:39:15;;;;;;;13.43;4.17;;;4.90;99.90;;;;;;5075823;28;20166;-51
2023/03/05 08:41:40;;;;;;;10.97;4.30;;;5.00;99.90;;;;;;5077016;28;20247;-52
2023/03/05 08:44:06;;;;;;;13.47;4.47;;;5.00;99.90;;;;;;5077077;28;20232;-51
2023/03/05 08:46:32;;;;;;;8.17;4.27;;;5.00;99.90;;;;;;5077281;28;20259;-51
2023/03/05 08:48:58;;;;;;;12.20;4.50;;;5.00;99.90;;;;;;5077044;28;20178;-50
2023/03/05 08:51:24;;;;;;;12.80;4.00;;;5.00;99.90;;;;;;5076864;28;20250;-51
2023/03/05 08:53:51;;;;;;;9.73;4.53;;;5.00;99.90;;;;;;5077098;28;20211;-50
2023/03/05 08:56:17;;;;;;;9.93;4.60;;;5.00;99.90;;;;;;5077066;28;20577;-51
2023/03/05 08:58:44;;;;;;;11.70;5.17;;;5.00;99.90;;;;;;5058894;28;20181;-52
2023/03/05 09:01:11;;;;;;;13.97;4.50;;;5.10;99.90;;;;;;5076858;28;20274;-50
2023/03/05 09:03:37;;;;;;;10.90;4.87;;;5.00;99.90;;;;;;5075309;28;20188;-51
2023/03/05 09:06:06;;;;;;;11.53;4.57;;;5.00;99.90;;;;;;5058649;28;20186;-50
2023/03/05 09:08:32;;;;;;;16.40;5.27;;;5.00;99.90;;;;;;5076745;28;20186;-51
2023/03/05 09:11:01;;;;;;;11.57;4.77;;;5.00;99.90;;;;;;5076450;28;20197;-50
2023/03/05 09:13:27;;;;;;;15.40;5.20;;;5.00;99.90;;;;;;5076643;28;20202;-50
2023/03/05 09:16:02;;;;;;;11.63;5.03;;;5.00;99.90;;;;;;5076656;28;20191;-52
2023/03/05 09:18:28;;;;;;;10.23;5.83;;;5.00;99.90;;;;;;5076706;28;20181;-51
2023/03/05 09:20:55;;;;;;;11.63;6.83;;;5.00;99.90;;;;;;5076172;28;20591;-50
2023/03/05 09:23:21;;;;;;;14.97;7.53;;;4.90;99.90;;;;;;5076523;28;20523;-51
2023/03/05 09:25:48;;;;;;;10.60;6.00;;;4.90;99.90;;;;;;5076699;28;20174;-49
2023/03/05 09:28:14;;;;;;;12.87;6.63;;;4.80;99.90;;;;;;5077372;28;20261;-50
2023/03/05 09:30:39;;;;;;;10.37;5.93;;;4.80;99.90;;;;;;5076617;28;20229;-50
2023/03/05 09:33:05;;;;;;;12.87;6.80;;;4.80;99.90;;;;;;5076353;28;20206;-51
2023/03/05 09:35:35;;;;;;;6.77;4.00;;;4.80;99.90;;;;;;5089793;28;20246;-49
2023/03/05 09:38:00;;;;;;;9.93;5.80;;;4.80;99.90;;;;;;5095046;28;20199;-51
2023/03/05 09:40:40;;;;;;;10.13;5.57;;;4.80;99.90;;;;;;5077457;28;20229;-49
2023/03/05 09:43:33;;;;;;;9.40;6.40;;;4.80;99.90;;;;;;5077186;28;20176;-50
2023/03/05 09:46:51;;;;;;;8.40;5.70;;;4.70;99.90;;;;;;5076550;28;20166;-51
2023/03/05 09:49:43;;;;;;;7.23;4.20;;;4.70;99.90;;;;;;5043620;28;20658;-48
2023/03/05 09:52:22;;;;;;;7.03;5.00;;;4.70;99.90;;;;;;5064859;28;20202;-50
2023/03/05 09:54:53;;;;;;;9.97;5.73;;;4.70;99.90;;;;;;5057847;28;20569;-49
2023/03/05 09:57:24;;;;;;;9.57;5.93;;;4.60;99.90;;;;;;5075981;28;20212;-48
2023/03/05 10:00:07;;;;;;;8.27;5.80;;;4.60;99.90;;;;;;5075901;28;20260;-50
2023/03/05 10:02:36;;;;;;;9.17;6.33;;;4.60;99.90;;;;;;5075998;28;20158;-50
2023/03/05 10:05:19;;;;;;;8.57;6.53;;;4.70;99.90;;;;;;5075488;28;20171;-50
2023/03/05 10:07:53;;;;;;;9.33;6.47;;;4.80;99.90;;;;;;5075830;28;20170;-50
2023/03/05 10:10:26;;;;;;;13.30;7.23;;;4.90;99.90;;;;;;5074618;28;20198;-51
2023/03/05 10:12:58;;;;;;;9.97;6.60;;;4.90;99.90;;;;;;5075302;28;20191;-50
2023/03/05 10:15:40;;;;;;;9.13;6.77;;;4.90;99.90;;;;;;5075341;28;20175;-52
2023/03/05 10:18:29;;;;;;;11.20;7.20;;;4.90;99.90;;;;;;5075504;28;20159;-49
2023/03/05 10:21:20;;;;;;;13.67;8.03;;;5.00;99.90;;;;;;5075174;28;20188;-51
2023/03/05 10:24:01;;;;;;;13.23;6.67;;;5.00;99.90;;;;;;5075719;28;20629;-51
2023/03/05 10:26:57;;;;;;;13.17;7.20;;;5.00;99.90;;;;;;5075007;28;20178;-50
2023/03/05 10:29:37;;;;;;;13.77;7.90;;;5.00;99.90;;;;;;5075007;28;20590;-50
2023/03/05 10:32:34;;;;;;;14.33;8.17;;;5.10;99.90;;;;;;5075204;28;20610;-52
2023/03/05 10:35:05;;;;;;;11.40;7.53;;;5.10;99.90;;;;;;5075588;28;20180;-50
2023/03/05 10:37:55;;;;;;;12.30;8.87;;;5.20;99.90;;;;;;5074866;28;20247;-51
2023/03/05 10:40:28;;;;;;;13.27;8.67;;;5.20;99.90;;;;;;5074663;28;20194;-52
2023/03/05 10:43:06;;;;;;;19.07;9.93;;;5.30;99.90;;;;;;5074667;28;20197;-52
2023/03/05 10:45:40;;;;;;;13.87;9.43;;;5.30;99.90;;;;;;5074661;28;20642;-51
2023/03/05 10:48:08;;;;;;;13.63;9.03;;;5.30;99.90;;;;;;5074901;28;20167;-49
2023/03/05 10:50:43;;;;;;;11.53;8.67;;;5.40;99.90;;;;;;5074026;28;20199;-52
2023/03/05 10:53:31;;;;;;;13.73;9.70;;;5.50;99.90;;;;;;5074438;28;20256;-51
2023/03/05 10:56:04;;;;;;;16.03;10.10;;;5.60;99.90;;;;;;5074445;28;20167;-51
2023/03/05 10:58:30;;;;;;;12.97;9.33;;;5.80;99.90;;;;;;5074675;28;20164;-51
2023/03/05 11:01:11;;;;;;;16.17;9.83;;;5.90;99.90;;;;;;5074530;28;20218;-51
2023/03/05 11:03:56;;;;;;;14.17;9.87;;;6.00;99.90;;;;;;5074620;28;20197;-51
2023/03/05 11:06:29;;;;;;;15.13;9.63;;;6.10;99.90;;;;;;5056373;28;20175;-51
2023/03/05 11:08:55;;;;;;;16.03;9.90;;;6.00;99.90;;;;;;5074503;28;20178;-53
2023/03/05 11:11:22;;;;;;;11.23;9.13;;;6.10;99.90;;;;;;5074098;28;20194;-50
2023/03/05 11:14:00;;;;;;;16.97;10.10;;;6.10;99.90;;;;;;5074108;28;20655;-52
2023/03/05 11:16:29;;;;;;;13.87;9.53;;;6.10;99.90;;;;;;5074422;28;20167;-52
2023/03/05 11:19:12;;;;;;;12.40;9.50;;;6.10;99.90;;;;;;5074345;28;20575;-51
2023/03/05 11:21:38;;;;;;;12.80;8.90;;;6.10;99.90;;;;;;5074553;28;20195;-51
2023/03/05 11:24:17;;;;;;;13.73;9.87;;;6.10;99.90;;;;;;5073746;28;20195;-52
2023/03/05 11:26:48;;;;;;;15.67;9.77;;;6.10;99.90;;;;;;5074168;28;20187;-51
2023/03/05 11:29:26;;;;;;;13.63;8.93;;;6.10;99.90;;;;;;5073876;28;20176;-51
2023/03/05 11:31:52;;;;;;;10.33;7.60;;;6.20;99.90;;;;;;5073799;28;20598;-51
2023/03/05 11:34:18;;;;;;;14.23;8.77;;;6.20;99.90;;;;;;5073704;28;20237;-51
2023/03/05 11:36:51;;;;;;;13.13;8.47;;;6.10;99.90;;;;;;5074353;28;20204;-50
2023/03/05 11:39:20;;;;;;;11.67;7.93;;;6.00;99.90;;;;;;5073805;28;20259;-52
2023/03/05 11:42:00;;;;;;;13.50;8.63;;;7.30;99.90;;;;;;5073561;28;20191;-52
2023/03/05 11:44:44;;;;;;;14.33;8.70;;;6.00;99.90;;;;;;5073924;28;20160;-52
2023/03/05 11:47:34;;;;;;;11.17;8.37;;;6.00;99.90;;;;;;5073906;28;20169;-52
2023/03/05 11:50:11;;;;;;;10.57;7.23;;;6.10;99.90;;;;;;5073844;28;20199;-51
2023/03/05 11:53:09;;;;;;;12.53;6.80;;;6.10;99.90;;;;;;5074439;28;20164;-52
2023/03/05 11:55:44;;;;;;;9.97;6.70;;;6.20;99.90;;;;;;5073958;28;20639;-53
2023/03/05 11:58:35;;;;;;;9.67;6.40;;;6.20;99.90;;;;;;5073958;28;20515;-52
2023/03/05 12:01:05;;;;;;;11.67;7.07;;;6.20;99.90;;;;;;5073463;28;20679;-55
2023/03/05 12:03:37;;;;;;;9.90;6.60;;;6.20;99.90;;;;;;5073684;28;20546;-52
2023/03/05 12:06:16;;;;;;;7.33;6.10;;;6.20;99.90;;;;;;5073351;28;20176;-53
2023/03/05 12:08:47;;;;;;;7.53;5.90;;;6.20;99.90;;;;;;5073260;28;20644;-52
2023/03/05 12:11:25;;;;;;;9.47;5.67;;;6.20;99.90;;;;;;5073669;28;20510;-53
2023/03/05 12:14:26;;;;;;;7.20;5.47;;;6.10;99.90;;;;;;5073517;28;20198;-54
2023/03/05 12:17:12;;;;;;;8.73;5.77;;;6.10;99.90;;;;;;5073431;28;20186;-54
2023/03/05 12:19:50;;;;;;;9.20;5.27;;;6.10;99.90;;;;;;5073149;28;20172;-52
2023/03/05 12:22:24;;;;;;;8.67;5.13;;;6.10;99.90;;;;;;5071930;28;20221;-54
2023/03/05 12:24:50;;;;;;;9.10;5.33;;;6.10;99.90;;;;;;5073013;28;20199;-52
2023/03/05 12:27:33;;;;;;;6.63;5.07;;;6.10;99.90;;;;;;5073438;28;20187;-53
2023/03/05 12:30:02;;;;;;;7.27;4.90;;;6.20;99.90;;;;;;5073244;28;20262;-53
2023/03/05 12:32:27;;;;;;;5.73;4.40;;;6.20;99.90;;;;;;5073402;28;20179;-54
2023/03/05 12:34:59;;;;;;;8.00;4.80;;;6.10;99.90;;;;;;5073029;28;20214;-54
2023/03/05 12:37:24;;;;;;;7.33;5.00;;;6.10;99.90;;;;;;5073316;28;20187;-53
2023/03/05 12:40:11;;;;;;;6.93;4.40;;;6.10;99.90;;;;;;5072922;28;20187;-52
2023/03/05 12:42:37;;;;;;;5.17;4.20;;;6.00;99.90;;;;;;5071726;28;20587;-52
2023/03/05 12:45:08;;;;;;;7.43;4.27;;;6.10;99.90;;;;;;5072910;28;20175;-53
2023/03/05 12:47:35;;;;;;;6.73;3.47;;;6.10;99.90;;;;;;5073194;28;20176;-53
2023/03/05 12:50:02;;;;;;;5.53;3.97;;;6.00;99.90;;;;;;5071692;28;20660;-53
2023/03/05 12:52:31;;;;;;;6.47;3.57;;;6.10;99.90;;;;;;5072987;28;20210;-53
2023/03/05 12:55:22;;;;;;;11.40;5.43;;;6.10;99.90;;;;;;5083605;28;20242;-54
2023/03/05 12:57:57;;;;;;;9.77;5.93;;;6.20;99.90;;;;;;5074517;28;20197;-52
2023/03/05 13:00:37;;;;;;;7.57;5.27;;;6.30;99.90;;;;;;5073260;28;20190;-53
2023/03/05 13:03:09;;;;;;;9.07;4.50;;;6.40;99.90;;;;;;5073234;28;20624;-52